createdAt,value
2023-12-01T00:02:58.481Z,12.85
2023-12-01T00:09:02.120Z,12.73
2023-12-01T00:15:06.302Z,13.25
2023-12-01T00:21:11.555Z,13.38
2023-12-01T00:27:16.577Z,13.15
2023-12-01T00:33:21.654Z,13.88
2023-12-01T00:39:28.033Z,14.30
2023-12-01T00:45:40.925Z,20.23
2023-12-01T00:51:49.637Z,17.52
2023-12-01T00:57:56.570Z,15.18
2023-12-01T01:04:01.725Z,15.35
2023-12-01T01:10:07.148Z,15.65
2023-12-01T01:16:13.981Z,15.25
2023-12-01T01:22:18.961Z,15.10
2023-12-01T01:28:22.482Z,14.73
2023-12-01T01:34:28.414Z,14.65
2023-12-01T01:40:34.514Z,14.73
2023-12-01T01:46:38.446Z,17.23
2023-12-01T01:52:43.956Z,16.85
2023-12-01T01:58:47.652Z,16.40
2023-12-01T02:04:54.937Z,17.50
2023-12-01T02:11:01.996Z,17.88
2023-12-01T02:17:11.403Z,17.38
2023-12-01T02:23:17.926Z,16.10
2023-12-01T02:29:22.888Z,15.45
2023-12-01T02:35:30.882Z,16.48
2023-12-01T02:41:35.817Z,15.95
2023-12-01T02:47:39.324Z,15.90
2023-12-01T02:53:42.781Z,17.35
2023-12-01T02:59:50.614Z,15.70
2023-12-01T03:12:25.104Z,16.30
2023-12-01T03:18:34.178Z,16.75
2023-12-01T03:24:37.749Z,16.48
2023-12-01T03:30:41.264Z,16.17
2023-12-01T03:36:46.161Z,16.90
2023-12-01T03:42:50.156Z,16.60
2023-12-01T03:48:53.842Z,16.83
2023-12-01T03:55:03.335Z,16.85
2023-12-01T04:01:10.189Z,16.50
2023-12-01T04:07:18.375Z,15.10
2023-12-01T04:13:28.992Z,15.48
2023-12-01T04:19:34.041Z,16.02
2023-12-01T04:25:39.637Z,14.95
2023-12-01T04:31:54.362Z,13.63
2023-12-01T04:38:06.298Z,14.57
2023-12-01T04:44:11.257Z,14.20
2023-12-01T04:50:17.983Z,13.98
2023-12-01T04:56:26.617Z,14.20
2023-12-01T05:02:32.529Z,15.15
2023-12-01T05:08:37.479Z,14.73
2023-12-01T05:14:42.469Z,13.05
2023-12-01T05:20:47.465Z,12.90
2023-12-01T05:26:55.359Z,13.85
2023-12-01T05:33:00.463Z,13.85
2023-12-01T05:39:14.177Z,13.20
2023-12-01T05:45:19.649Z,12.77
2023-12-01T05:51:23.203Z,12.75
2023-12-01T05:57:26.913Z,12.88
2023-12-01T06:03:31.813Z,12.50
2023-12-01T06:09:35.277Z,12.57
2023-12-01T06:15:38.760Z,12.38
2023-12-01T06:21:43.764Z,13.25
2023-12-01T06:27:48.153Z,12.55
2023-12-01T06:33:51.906Z,13.23
2023-12-01T06:39:57.106Z,13.13
2023-12-01T06:46:00.639Z,12.80
2023-12-01T06:52:04.531Z,13.95
2023-12-01T06:58:11.075Z,13.57
2023-12-01T07:04:15.513Z,14.70
2023-12-01T07:10:19.410Z,13.95
2023-12-01T07:16:24.407Z,13.55
2023-12-01T07:22:27.958Z,12.27
2023-12-01T07:28:31.760Z,14.20
2023-12-01T07:34:37.763Z,21.20
2023-12-01T07:40:41.240Z,20.55
2023-12-01T07:46:44.856Z,20.77
2023-12-01T07:52:50.246Z,15.30
2023-12-01T07:58:53.769Z,15.18
2023-12-01T08:04:57.244Z,13.88
2023-12-01T08:11:05.781Z,14.02
2023-12-01T08:17:09.856Z,19.15
2023-12-01T08:23:14.480Z,15.27
2023-12-01T08:29:20.786Z,12.88
2023-12-01T08:35:25.604Z,13.45
2023-12-01T08:41:29.846Z,13.77
2023-12-01T08:47:34.780Z,12.88
2023-12-01T08:53:38.424Z,16.85
2023-12-01T08:59:42.488Z,12.65
2023-12-01T09:05:47.616Z,14.38
2023-12-01T09:11:51.215Z,14.57
2023-12-01T09:17:55.059Z,21.33
2023-12-01T09:24:00.027Z,15.73
2023-12-01T09:30:04.048Z,16.00
2023-12-01T09:36:08.124Z,17.95
2023-12-01T09:42:13.067Z,18.33
2023-12-01T09:48:17.069Z,17.67
2023-12-01T09:54:20.838Z,18.17
2023-12-01T10:00:25.966Z,17.85
2023-12-01T10:06:29.669Z,18.33
2023-12-01T10:12:33.147Z,19.35
2023-12-01T10:18:38.969Z,19.55
2023-12-01T10:24:42.459Z,21.90
2023-12-01T10:30:56.023Z,20.77
2023-12-01T10:37:00.892Z,20.13
2023-12-01T10:43:04.960Z,16.50
2023-12-01T10:49:09.014Z,17.73
2023-12-01T10:55:15.161Z,16.55
2023-12-01T11:01:19.882Z,17.83
2023-12-01T11:07:43.911Z,22.30
2023-12-01T11:14:02.310Z,21.77
2023-12-01T11:20:33.475Z,17.60
2023-12-01T11:26:37.019Z,19.42
2023-12-01T11:32:42.051Z,18.65
2023-12-01T11:39:00.861Z,17.35
2023-12-01T11:45:06.185Z,15.77
2023-12-01T11:51:13.139Z,14.55
2023-12-01T11:57:19.785Z,15.82
2023-12-01T12:03:25.472Z,14.07
2023-12-01T12:09:32.531Z,13.52
2023-12-01T12:15:36.320Z,13.90
2023-12-01T12:21:41.276Z,12.48
2023-12-01T12:27:45.221Z,12.27
2023-12-01T12:33:50.653Z,11.07
2023-12-01T12:39:55.677Z,10.90
2023-12-01T12:46:01.528Z,11.27
2023-12-01T12:52:06.111Z,11.48
2023-12-01T12:58:11.102Z,9.25
2023-12-01T13:04:14.996Z,9.50
2023-12-01T13:10:18.721Z,12.60
2023-12-01T13:16:23.742Z,12.80
2023-12-01T13:22:27.196Z,12.02
2023-12-01T13:28:30.778Z,13.20
2023-12-01T13:34:36.477Z,13.40
2023-12-01T13:40:39.951Z,14.25
2023-12-01T13:46:43.752Z,14.93
2023-12-01T13:52:48.706Z,15.73
2023-12-01T13:58:52.333Z,14.48
2023-12-01T14:04:55.809Z,15.50
2023-12-01T14:11:00.631Z,15.70
2023-12-01T14:17:04.341Z,14.82
2023-12-01T14:23:08.156Z,14.68
2023-12-01T14:29:13.425Z,14.70
2023-12-01T14:35:17.039Z,17.17
2023-12-01T14:41:20.598Z,14.25
2023-12-01T14:47:28.633Z,13.98
2023-12-01T14:53:32.847Z,14.02
2023-12-01T14:59:36.418Z,15.63
2023-12-01T15:05:41.738Z,16.08
2023-12-01T15:11:48.309Z,22.52
2023-12-01T15:17:52.011Z,15.70
2023-12-01T15:23:57.009Z,17.52
2023-12-01T15:30:00.571Z,15.30
2023-12-01T15:36:04.424Z,14.38
2023-12-01T15:42:09.514Z,14.10
2023-12-01T15:48:13.243Z,14.05
2023-12-01T15:54:16.873Z,13.93
2023-12-01T16:00:22.209Z,13.43
2023-12-01T16:06:26.207Z,13.00
2023-12-01T16:12:29.782Z,10.93
2023-12-01T16:18:35.281Z,11.10
2023-12-01T16:24:40.669Z,11.07
2023-12-01T16:30:44.367Z,10.95
2023-12-01T16:36:53.739Z,9.00
2023-12-01T16:42:58.114Z,8.88
2023-12-01T16:49:02.125Z,8.88
2023-12-01T16:55:10.716Z,10.65
2023-12-01T17:01:14.315Z,10.13
2023-12-01T17:07:17.881Z,10.90
2023-12-01T17:13:22.821Z,13.88
2023-12-01T17:19:26.619Z,15.85
2023-12-01T17:25:30.312Z,16.83
2023-12-01T17:31:35.515Z,14.43
2023-12-01T17:37:39.037Z,12.60
2023-12-01T17:43:42.661Z,13.35
2023-12-01T17:49:48.614Z,13.35
2023-12-01T17:55:52.137Z,14.73
2023-12-01T18:01:55.703Z,15.60
2023-12-01T18:08:00.742Z,15.13
2023-12-01T18:14:04.932Z,14.73
2023-12-01T18:20:08.827Z,13.90
2023-12-01T18:26:14.048Z,12.80
2023-12-01T18:32:17.495Z,14.00
2023-12-01T18:38:21.239Z,13.38
2023-12-01T18:44:26.123Z,12.85
2023-12-01T18:50:32.260Z,14.23
2023-12-01T18:56:35.919Z,14.18
2023-12-01T19:02:40.976Z,13.05
2023-12-01T19:08:44.901Z,12.40
2023-12-01T19:14:48.412Z,12.88
2023-12-01T19:20:53.372Z,13.05
2023-12-01T19:26:56.974Z,13.35
2023-12-01T19:33:00.680Z,15.18
2023-12-01T19:39:06.419Z,14.60
2023-12-01T19:45:10.522Z,13.63
2023-12-01T19:51:14.132Z,13.90
2023-12-01T19:57:19.211Z,13.15
2023-12-01T20:03:22.790Z,14.18
2023-12-01T20:09:26.304Z,14.27
2023-12-01T20:15:31.234Z,14.02
2023-12-01T20:21:35.147Z,13.93
2023-12-01T20:27:38.665Z,12.63
2023-12-01T20:33:43.682Z,13.30
2023-12-01T20:39:47.480Z,11.43
2023-12-01T20:45:51.776Z,11.73
2023-12-01T20:51:57.007Z,11.82
2023-12-01T20:58:00.496Z,12.60
2023-12-01T21:04:04.786Z,11.88
2023-12-01T21:10:10.560Z,10.85
2023-12-01T21:16:14.092Z,11.53
2023-12-01T21:22:18.013Z,10.37
2023-12-01T21:28:22.947Z,9.88
2023-12-01T21:34:26.457Z,10.47
2023-12-01T21:40:30.664Z,10.77
2023-12-01T21:46:35.668Z,10.77
2023-12-01T21:52:40.167Z,10.77
2023-12-01T21:58:43.745Z,9.70
2023-12-01T22:04:48.676Z,9.70
2023-12-01T22:10:52.368Z,9.60
2023-12-01T22:16:56.264Z,9.13
2023-12-01T22:23:01.096Z,9.77
2023-12-01T22:29:04.784Z,9.17
2023-12-01T22:35:08.765Z,9.53
2023-12-01T22:41:13.571Z,9.73
2023-12-01T22:47:17.082Z,8.87
2023-12-01T22:53:20.510Z,9.50
2023-12-01T22:59:25.407Z,10.23
2023-12-01T23:05:29.256Z,9.77
2023-12-01T23:11:33.345Z,10.77
2023-12-01T23:17:38.430Z,10.23
2023-12-01T23:23:43.330Z,9.57
2023-12-01T23:29:46.947Z,9.33
2023-12-01T23:35:51.853Z,9.40
2023-12-01T23:41:55.434Z,11.23
2023-12-01T23:47:59.233Z,10.33
2023-12-01T23:54:04.316Z,10.43
